createdAt,value
2018-12-19T00:00:29.252Z,94.90
2018-12-19T00:02:59.753Z,94.80
2018-12-19T00:05:31.032Z,94.70
2018-12-19T00:08:01.606Z,94.60
2018-12-19T00:10:32.141Z,94.50
2018-12-19T00:13:02.577Z,94.00
2018-12-19T00:15:33.094Z,93.70
2018-12-19T00:18:03.559Z,93.60
2018-12-19T00:20:34.061Z,93.70
2018-12-19T00:23:05.615Z,93.70
2018-12-19T00:25:38.094Z,93.70
2018-12-19T00:28:08.720Z,93.30
2018-12-19T00:30:39.336Z,93.10
2018-12-19T00:33:10.020Z,93.00
2018-12-19T00:35:40.712Z,93.00
2018-12-19T00:38:11.279Z,93.00
2018-12-19T00:40:41.676Z,92.90
2018-12-19T00:43:12.088Z,93.00
2018-12-19T00:45:42.616Z,93.10
2018-12-19T00:48:13.136Z,93.00
2018-12-19T00:50:43.662Z,93.10
2018-12-19T00:53:14.250Z,93.10
2018-12-19T00:55:44.788Z,93.30
2018-12-19T00:58:29.598Z,93.40
2018-12-19T01:01:00.128Z,93.50
2018-12-19T01:03:31.891Z,93.60
2018-12-19T01:06:02.458Z,93.60
2018-12-19T01:08:33.052Z,93.50
2018-12-19T01:11:03.548Z,93.10
2018-12-19T01:13:34.179Z,93.30
2018-12-19T01:16:04.831Z,93.00
2018-12-19T01:18:35.456Z,92.90
2018-12-19T01:21:06.059Z,92.90
2018-12-19T01:23:36.677Z,92.80
2018-12-19T01:26:07.103Z,92.70
2018-12-19T01:28:37.553Z,92.60
2018-12-19T01:31:08.023Z,92.60
2018-12-19T01:33:38.841Z,92.60
2018-12-19T01:36:09.293Z,92.60
2018-12-19T01:38:39.842Z,92.80
2018-12-19T01:41:10.348Z,92.40
2018-12-19T01:43:40.823Z,92.50
2018-12-19T01:46:11.273Z,92.50
2018-12-19T01:48:41.853Z,92.50
2018-12-19T01:51:12.497Z,92.50
2018-12-19T01:53:43.245Z,92.70
2018-12-19T01:56:13.734Z,92.20
2018-12-19T01:58:44.226Z,92.00
2018-12-19T02:01:14.781Z,91.80
2018-12-19T02:03:45.336Z,91.80
2018-12-19T02:06:15.899Z,91.70
2018-12-19T02:08:46.458Z,91.70
2018-12-19T02:11:17.060Z,92.10
2018-12-19T02:13:47.633Z,92.00
2018-12-19T02:16:18.537Z,91.70
2018-12-19T02:18:49.088Z,91.70
2018-12-19T02:21:19.652Z,91.70
2018-12-19T02:23:50.158Z,91.50
2018-12-19T02:26:20.768Z,91.60
2018-12-19T02:28:51.261Z,91.50
2018-12-19T02:31:21.773Z,91.40
2018-12-19T02:33:52.645Z,91.80
2018-12-19T02:36:23.135Z,91.30
2018-12-19T02:38:53.690Z,91.10
2018-12-19T02:41:24.209Z,91.30
2018-12-19T02:43:54.788Z,91.20
2018-12-19T02:46:25.342Z,90.90
2018-12-19T02:48:55.854Z,90.80
2018-12-19T02:51:26.230Z,91.10
2018-12-19T02:53:57.053Z,91.00
2018-12-19T02:56:27.538Z,90.90
2018-12-19T02:58:58.299Z,90.60
2018-12-19T03:01:28.773Z,90.40
2018-12-19T03:03:59.285Z,90.40
2018-12-19T03:06:29.739Z,90.40
2018-12-19T03:09:00.239Z,90.50
2018-12-19T03:11:30.686Z,90.20
2018-12-19T03:14:01.192Z,90.20
2018-12-19T03:16:32.546Z,90.00
2018-12-19T03:19:02.947Z,88.90
2018-12-19T03:21:33.602Z,89.30
2018-12-19T03:24:04.069Z,90.30
2018-12-19T03:26:34.436Z,90.50
2018-12-19T03:29:04.991Z,90.20
2018-12-19T03:31:35.491Z,90.00
2018-12-19T03:34:06.220Z,90.20
2018-12-19T03:36:36.778Z,90.00
2018-12-19T03:39:09.565Z,89.10
2018-12-19T03:41:40.393Z,89.40
2018-12-19T03:44:11.059Z,89.30
2018-12-19T03:46:41.770Z,89.40
2018-12-19T03:49:12.387Z,89.80
2018-12-19T03:51:43.300Z,90.00
2018-12-19T03:54:14.088Z,90.20
2018-12-19T03:56:53.344Z,89.80
2018-12-19T03:59:23.883Z,90.00
2018-12-19T04:01:54.448Z,89.70
2018-12-19T04:04:25.005Z,90.00
2018-12-19T04:06:55.514Z,90.10
2018-12-19T04:09:26.076Z,90.20
2018-12-19T04:11:56.576Z,90.20
2018-12-19T04:14:27.203Z,90.30
2018-12-19T04:16:57.731Z,90.60
2018-12-19T04:19:29.289Z,90.60
2018-12-19T04:21:59.711Z,90.70
2018-12-19T04:24:30.985Z,90.70
2018-12-19T04:27:01.469Z,90.80
2018-12-19T04:29:32.349Z,91.00
2018-12-19T04:32:02.852Z,90.90
2018-12-19T04:34:33.410Z,91.20
2018-12-19T04:37:03.893Z,91.40
2018-12-19T04:39:34.394Z,91.70
2018-12-19T04:42:06.750Z,92.10
2018-12-19T04:44:37.350Z,92.40
2018-12-19T04:47:07.881Z,92.50
2018-12-19T04:49:38.766Z,92.60
2018-12-19T04:52:09.251Z,92.80
2018-12-19T04:54:39.859Z,93.10
2018-12-19T05:09:40.795Z,94.00
2018-12-19T05:12:15.202Z,94.20
2018-12-19T05:14:58.917Z,94.40
2018-12-19T05:17:36.668Z,94.80
2018-12-19T05:20:13.353Z,95.60
2018-12-19T05:22:50.327Z,95.80
2018-12-19T05:25:27.575Z,95.80
2018-12-19T05:27:59.970Z,96.00
2018-12-19T05:30:30.269Z,96.10
2018-12-19T05:33:00.597Z,96.00
2018-12-19T05:35:31.079Z,96.00
2018-12-19T05:38:01.480Z,96.20
2018-12-19T05:40:31.868Z,95.90
2018-12-19T05:43:03.550Z,95.80
2018-12-19T05:45:34.475Z,95.70
2018-12-19T06:01:42.233Z,95.70
2018-12-19T06:04:13.112Z,95.90
2018-12-19T06:06:43.659Z,95.90
2018-12-19T06:09:14.211Z,95.90
2018-12-19T06:11:44.712Z,95.80
2018-12-19T06:14:15.269Z,95.90
2018-12-19T06:16:45.851Z,96.00
2018-12-19T06:19:16.357Z,96.00
2018-12-19T06:21:46.848Z,96.40
2018-12-19T06:24:17.316Z,96.10
2018-12-19T06:26:47.917Z,96.10
2018-12-19T06:29:18.426Z,96.30
2018-12-19T06:31:48.908Z,96.30
2018-12-19T06:34:19.434Z,96.40
2018-12-19T06:36:49.915Z,96.50
2018-12-19T06:39:20.622Z,96.50
2018-12-19T06:41:51.160Z,96.70
2018-12-19T06:44:21.664Z,96.90
2018-12-19T06:46:52.589Z,97.00
2018-12-19T06:49:23.159Z,97.30
2018-12-19T06:51:53.714Z,97.40
2018-12-19T06:54:24.249Z,97.70
2018-12-19T06:56:54.774Z,97.80
2018-12-19T06:59:25.655Z,98.00
2018-12-19T07:01:56.207Z,98.30
2018-12-19T07:04:26.837Z,98.30
2018-12-19T07:06:57.431Z,98.30
2018-12-19T07:09:27.914Z,98.50
2018-12-19T07:11:58.470Z,98.90
2018-12-19T07:14:28.989Z,98.80
2018-12-19T07:16:59.637Z,99.20
2018-12-19T07:19:30.090Z,99.00
2018-12-19T07:22:00.629Z,99.30
2018-12-19T07:24:31.172Z,99.60
2018-12-19T07:27:01.753Z,99.60
2018-12-19T07:29:32.299Z,99.70
2018-12-19T07:32:02.814Z,99.70
2018-12-19T07:34:33.526Z,99.90
2018-12-19T07:37:04.109Z,99.90
2018-12-19T07:39:34.591Z,99.90
2018-12-19T07:42:05.337Z,99.90
2018-12-19T07:44:35.927Z,99.90
2018-12-19T07:47:06.496Z,99.90
2018-12-19T07:49:36.998Z,99.90
2018-12-19T07:52:07.665Z,99.90
2018-12-19T07:54:38.211Z,99.90
2018-12-19T07:57:08.754Z,99.90
2018-12-19T07:59:39.282Z,99.90
2018-12-19T08:02:09.826Z,99.90
2018-12-19T08:04:40.653Z,99.90
2018-12-19T08:07:11.144Z,99.90
2018-12-19T08:09:41.650Z,99.90
2018-12-19T08:12:12.214Z,99.90
2018-12-19T08:14:42.774Z,99.90
2018-12-19T08:17:13.355Z,99.90
2018-12-19T08:19:43.936Z,99.90
2018-12-19T08:22:14.472Z,99.90
2018-12-19T08:24:45.030Z,99.90
2018-12-19T08:27:15.975Z,99.90
2018-12-19T08:29:46.441Z,99.90
2018-12-19T08:32:17.456Z,99.90
2018-12-19T08:34:47.956Z,99.90
2018-12-19T08:37:18.435Z,99.90
2018-12-19T08:39:49.053Z,99.90
2018-12-19T08:42:19.635Z,99.90
2018-12-19T08:44:50.293Z,99.90
2018-12-19T08:47:20.937Z,99.90
2018-12-19T08:49:51.554Z,99.90
2018-12-19T08:52:22.214Z,99.90
2018-12-19T08:54:52.703Z,99.90
2018-12-19T08:57:23.295Z,99.90
2018-12-19T08:59:53.857Z,99.90
2018-12-19T09:02:24.787Z,99.90
2018-12-19T09:04:55.332Z,99.90
2018-12-19T09:07:25.936Z,99.90
2018-12-19T09:09:56.588Z,99.90
2018-12-19T09:12:27.023Z,99.90
2018-12-19T09:17:39.607Z,99.90
2018-12-19T09:45:49.950Z,99.90
2018-12-19T09:55:31.345Z,99.90
2018-12-19T09:58:25.229Z,99.90
2018-12-19T10:01:13.842Z,99.90
2018-12-19T10:13:01.035Z,99.90
2018-12-19T10:15:33.612Z,99.90
2018-12-19T10:18:04.222Z,99.90
2018-12-19T10:20:34.814Z,99.90
2018-12-19T10:23:05.463Z,99.90
2018-12-19T10:25:36.041Z,99.90
2018-12-19T10:28:06.749Z,99.90
2018-12-19T10:30:42.216Z,99.90
2018-12-19T10:33:12.896Z,99.90
2018-12-19T10:35:43.546Z,99.90
2018-12-19T10:38:14.176Z,99.90
2018-12-19T10:40:45.672Z,99.90
2018-12-19T10:43:16.413Z,99.90
2018-12-19T10:45:47.038Z,99.90
2018-12-19T10:48:17.571Z,99.90
2018-12-19T10:50:48.049Z,99.90
2018-12-19T10:53:18.946Z,99.90
2018-12-19T10:55:49.496Z,99.90
2018-12-19T10:58:20.074Z,99.90
2018-12-19T11:00:55.451Z,99.90
2018-12-19T11:03:25.987Z,99.90
2018-12-19T11:05:57.160Z,99.90
2018-12-19T11:08:27.973Z,99.90
2018-12-19T11:10:58.563Z,99.90
2018-12-19T11:13:29.217Z,99.90
2018-12-19T11:15:59.774Z,99.90
2018-12-19T11:18:30.748Z,99.90
2018-12-19T11:21:01.572Z,99.90
2018-12-19T11:23:32.369Z,99.90
2018-12-19T11:26:02.929Z,99.90
2018-12-19T11:28:33.503Z,99.90
2018-12-19T11:31:05.154Z,99.90
2018-12-19T11:33:35.994Z,99.90
2018-12-19T11:36:06.694Z,99.90
2018-12-19T11:38:37.322Z,99.90
2018-12-19T11:41:08.053Z,99.90
2018-12-19T11:43:38.603Z,99.90
2018-12-19T11:46:09.242Z,99.90
2018-12-19T11:48:39.795Z,99.90
2018-12-19T11:51:10.340Z,99.90
2018-12-19T11:53:41.464Z,99.90
2018-12-19T11:56:12.356Z,99.90
2018-12-19T11:58:43.202Z,99.90
2018-12-19T12:01:14.349Z,99.90
2018-12-19T12:03:45.259Z,99.90
2018-12-19T12:06:16.184Z,99.90
2018-12-19T12:08:47.070Z,99.90
2018-12-19T12:11:18.165Z,99.90
2018-12-19T12:13:48.932Z,99.90
2018-12-19T12:16:19.640Z,99.90
2018-12-19T12:18:50.331Z,99.90
2018-12-19T12:21:20.997Z,99.90
2018-12-19T12:23:52.052Z,99.90
2018-12-19T12:26:23.085Z,99.90
2018-12-19T12:28:54.191Z,99.90
2018-12-19T12:31:25.165Z,99.90
2018-12-19T12:33:56.247Z,99.90
2018-12-19T12:36:27.095Z,99.90
2018-12-19T12:38:59.313Z,99.90
2018-12-19T12:41:30.016Z,99.90
2018-12-19T12:44:02.158Z,99.90
2018-12-19T12:46:33.096Z,99.90
2018-12-19T12:49:04.155Z,99.90
2018-12-19T12:51:34.882Z,99.90
2018-12-19T12:54:05.859Z,99.90
2018-12-19T12:56:36.741Z,99.90
2018-12-19T12:59:07.487Z,99.90
2018-12-19T13:01:38.341Z,99.90
2018-12-19T13:04:09.451Z,99.90
2018-12-19T13:06:42.993Z,99.90
2018-12-19T13:09:15.311Z,99.90
2018-12-19T13:11:46.478Z,99.80
2018-12-19T13:14:17.611Z,99.80
2018-12-19T13:16:48.652Z,99.70
2018-12-19T13:19:27.748Z,99.70
2018-12-19T13:21:58.747Z,99.60
2018-12-19T13:24:29.844Z,99.60
2018-12-19T13:27:00.519Z,99.60
2018-12-19T13:43:13.045Z,99.50
2018-12-19T13:45:54.624Z,99.40
2018-12-19T13:48:27.386Z,99.40
2018-12-19T13:51:07.410Z,99.40
2018-12-19T13:56:22.976Z,99.50
2018-12-19T13:58:54.243Z,99.60
2018-12-19T14:01:25.311Z,99.70
2018-12-19T14:03:56.054Z,99.70
2018-12-19T14:06:26.810Z,99.70
2018-12-19T14:08:57.462Z,99.60
2018-12-19T14:11:28.601Z,99.70
2018-12-19T14:14:00.530Z,99.60
2018-12-19T14:16:31.498Z,99.60
2018-12-19T14:19:05.247Z,99.50
2018-12-19T14:21:38.876Z,99.40
2018-12-19T14:24:12.553Z,99.40
2018-12-19T14:26:54.719Z,99.40
2018-12-19T14:29:37.939Z,99.50
2018-12-19T14:32:13.357Z,99.60
2018-12-19T14:35:01.131Z,99.80
2018-12-19T14:37:34.432Z,99.80
2018-12-19T14:40:09.090Z,99.90
2018-12-19T14:42:44.725Z,99.90
2018-12-19T14:45:33.657Z,99.80
2018-12-19T14:48:05.840Z,99.80
2018-12-19T14:50:49.005Z,99.80
2018-12-19T14:56:17.029Z,99.70
2018-12-19T14:58:50.045Z,99.70
2018-12-19T15:01:22.087Z,99.80
2018-12-19T15:03:59.254Z,99.60
2018-12-19T15:06:38.300Z,99.60
2018-12-19T15:09:14.857Z,99.50
2018-12-19T15:11:59.973Z,99.40
2018-12-19T15:14:30.945Z,99.30
2018-12-19T15:17:03.709Z,99.20
2018-12-19T15:19:34.608Z,99.20
2018-12-19T15:22:05.693Z,99.10
2018-12-19T15:24:38.840Z,99.00
2018-12-19T15:27:09.710Z,99.00
2018-12-19T15:29:41.589Z,99.00
2018-12-19T15:32:12.385Z,98.90
2018-12-19T15:34:49.713Z,98.90
2018-12-19T15:37:20.541Z,98.90
2018-12-19T15:39:51.481Z,98.90
2018-12-19T15:42:22.412Z,99.00
2018-12-19T15:44:53.470Z,99.00
2018-12-19T15:47:29.269Z,99.00
2018-12-19T15:50:00.245Z,98.70
2018-12-19T15:52:31.204Z,99.00
2018-12-19T15:55:03.233Z,99.10
2018-12-19T15:57:35.327Z,99.10
2018-12-19T16:00:09.327Z,99.10
2018-12-19T16:02:40.167Z,99.10
2018-12-19T16:05:11.504Z,99.10
2018-12-19T16:07:43.361Z,99.10
2018-12-19T16:10:14.517Z,99.10
2018-12-19T16:12:45.795Z,99.20
2018-12-19T16:15:21.165Z,99.20
2018-12-19T16:17:53.355Z,99.20
2018-12-19T16:20:24.425Z,99.20
2018-12-19T16:22:59.004Z,99.30
2018-12-19T16:25:30.920Z,99.30
2018-12-19T16:28:02.142Z,99.30
2018-12-19T16:30:34.932Z,99.20
2018-12-19T16:33:07.796Z,99.20
2018-12-19T16:35:40.048Z,99.30
2018-12-19T16:38:14.082Z,99.30
2018-12-19T16:40:45.389Z,99.30
2018-12-19T16:43:18.653Z,99.30
2018-12-19T16:45:50.716Z,99.30
2018-12-19T16:48:21.813Z,99.30
2018-12-19T16:50:52.846Z,99.20
2018-12-19T16:53:23.746Z,99.20
2018-12-19T16:55:55.081Z,99.10
2018-12-19T16:58:26.076Z,99.10
2018-12-19T17:00:57.315Z,99.00
2018-12-19T17:03:28.486Z,98.90
2018-12-19T17:05:59.999Z,98.90
2018-12-19T17:08:31.509Z,98.90
2018-12-19T17:11:02.635Z,99.10
2018-12-19T17:13:34.882Z,98.70
2018-12-19T17:16:05.984Z,98.70
2018-12-19T17:18:36.858Z,98.80
2018-12-19T17:21:10.437Z,98.70
2018-12-19T17:23:41.739Z,98.70
2018-12-19T17:26:14.694Z,98.70
2018-12-19T17:28:45.515Z,98.70
2018-12-19T17:31:16.435Z,98.60
2018-12-19T17:33:51.337Z,98.60
2018-12-19T17:36:24.821Z,98.60
2018-12-19T17:39:11.921Z,98.60
2018-12-19T17:41:45.607Z,98.60
2018-12-19T17:44:17.857Z,98.60
2018-12-19T17:46:49.170Z,98.60
2018-12-19T17:49:30.838Z,98.60
2018-12-19T17:55:19.357Z,98.50
2018-12-19T17:57:50.011Z,98.40
2018-12-19T18:00:24.221Z,98.70
2018-12-19T18:02:55.272Z,98.40
2018-12-19T18:05:27.659Z,98.50
2018-12-19T18:07:59.108Z,98.50
2018-12-19T18:10:30.341Z,98.40
2018-12-19T18:13:06.195Z,98.40
2018-12-19T18:15:34.472Z,98.40
2018-12-19T18:18:05.235Z,98.30
2018-12-19T18:20:36.370Z,98.40
2018-12-19T18:23:06.967Z,98.40
2018-12-19T18:25:41.362Z,98.40
2018-12-19T18:28:12.553Z,98.40
2018-12-19T18:30:43.502Z,98.40
2018-12-19T18:33:14.273Z,98.40
2018-12-19T18:35:47.538Z,98.40
2018-12-19T18:38:18.769Z,98.40
2018-12-19T18:40:49.397Z,98.50
2018-12-19T18:43:20.283Z,98.50
2018-12-19T18:45:54.517Z,98.50
2018-12-19T18:48:25.360Z,98.60
2018-12-19T18:50:56.508Z,98.50
2018-12-19T18:53:27.069Z,98.50
2018-12-19T18:55:57.801Z,98.50
2018-12-19T18:58:29.048Z,98.50
2018-12-19T19:01:02.567Z,98.60
2018-12-19T19:03:33.497Z,98.60
2018-12-19T19:06:04.345Z,98.60
2018-12-19T19:08:35.727Z,98.70
2018-12-19T19:11:09.155Z,98.70
2018-12-19T19:13:40.308Z,98.70
2018-12-19T19:16:16.299Z,99.00
2018-12-19T19:18:46.921Z,98.80
2018-12-19T19:21:17.657Z,98.80
2018-12-19T19:23:50.118Z,98.80
2018-12-19T19:26:20.944Z,98.80
2018-12-19T19:32:28.232Z,98.80
2018-12-19T19:34:59.218Z,99.10
2018-12-19T19:37:30.374Z,98.80
2018-12-19T19:40:03.696Z,98.70
2018-12-19T19:43:05.571Z,98.70
2018-12-19T19:45:39.648Z,98.70
2018-12-19T19:48:10.733Z,98.70
2018-12-19T19:50:43.294Z,98.70
2018-12-19T19:53:14.478Z,98.80
2018-12-19T19:55:45.560Z,98.70
2018-12-19T19:58:16.615Z,98.80
2018-12-19T20:00:47.620Z,98.70
2018-12-19T20:03:18.595Z,98.70
2018-12-19T20:05:52.289Z,98.70
2018-12-19T20:08:23.322Z,98.70
2018-12-19T20:10:54.385Z,98.70
2018-12-19T20:13:25.318Z,98.70
2018-12-19T20:15:56.387Z,98.70
2018-12-19T20:18:27.382Z,98.70
2018-12-19T20:20:58.375Z,98.80
2018-12-19T20:23:29.325Z,98.80
2018-12-19T20:26:00.445Z,98.80
2018-12-19T20:28:31.445Z,98.80
2018-12-19T20:31:32.029Z,98.80
2018-12-19T20:34:03.021Z,98.80
2018-12-19T20:36:33.939Z,98.80
2018-12-19T20:39:06.794Z,98.80
2018-12-19T20:41:37.714Z,98.80
2018-12-19T20:44:08.710Z,98.80
2018-12-19T20:46:39.689Z,98.80
2018-12-19T20:49:10.556Z,98.80
2018-12-19T20:51:41.375Z,98.80
2018-12-19T20:54:12.407Z,98.80
2018-12-19T20:56:43.419Z,98.80
2018-12-19T20:59:14.452Z,98.80
2018-12-19T21:01:45.497Z,98.70
2018-12-19T21:04:16.247Z,98.70
2018-12-19T21:06:46.977Z,98.70
2018-12-19T21:09:17.769Z,99.00
2018-12-19T21:11:50.741Z,98.70
2018-12-19T21:14:21.538Z,98.80
2018-12-19T21:16:57.076Z,98.70
2018-12-19T21:19:27.986Z,98.70
2018-12-19T21:21:58.600Z,98.70
2018-12-19T21:24:29.955Z,98.60
2018-12-19T21:27:00.900Z,98.60
2018-12-19T21:29:31.900Z,98.60
2018-12-19T21:32:02.651Z,98.70
2018-12-19T21:34:33.248Z,98.70
2018-12-19T21:37:03.894Z,98.70
2018-12-19T21:39:34.474Z,98.70
2018-12-19T21:42:05.123Z,98.70
2018-12-19T21:44:35.763Z,98.70
2018-12-19T21:47:07.289Z,98.70
2018-12-19T21:49:38.412Z,98.70
2018-12-19T21:52:09.999Z,98.80
2018-12-19T21:54:40.894Z,98.80
2018-12-19T21:57:11.875Z,98.70
2018-12-19T21:59:42.668Z,98.80
2018-12-19T22:02:13.520Z,98.70
2018-12-19T22:04:44.412Z,98.70
2018-12-19T22:07:15.165Z,98.70
2018-12-19T22:09:45.700Z,98.60
2018-12-19T22:12:16.276Z,98.60
2018-12-19T22:14:46.759Z,98.60
2018-12-19T22:17:22.311Z,98.60
2018-12-19T22:19:52.816Z,98.50
2018-12-19T22:22:23.392Z,98.50
2018-12-19T22:24:54.040Z,98.50
2018-12-19T22:27:24.592Z,98.60
2018-12-19T22:29:55.056Z,98.90
2018-12-19T22:32:25.667Z,98.60
2018-12-19T22:34:56.257Z,98.60
2018-12-19T22:37:26.817Z,98.60
2018-12-19T22:39:57.352Z,98.70
2018-12-19T22:42:27.852Z,98.70
2018-12-19T22:44:58.246Z,98.70
2018-12-19T22:47:28.815Z,98.70
2018-12-19T22:49:59.478Z,98.70
2018-12-19T22:52:30.103Z,98.70
2018-12-19T22:55:00.956Z,98.70
2018-12-19T22:57:31.692Z,98.80
2018-12-19T23:00:02.273Z,98.80
2018-12-19T23:02:38.015Z,98.80
2018-12-19T23:05:08.636Z,98.90
2018-12-19T23:07:40.144Z,98.90
2018-12-19T23:10:10.983Z,98.90
2018-12-19T23:12:41.951Z,98.90
2018-12-19T23:15:12.447Z,98.90
2018-12-19T23:17:43.078Z,98.90
2018-12-19T23:20:14.070Z,98.90
2018-12-19T23:22:45.031Z,98.90
2018-12-19T23:25:15.692Z,98.80
2018-12-19T23:27:46.511Z,98.80
2018-12-19T23:30:17.041Z,98.90
2018-12-19T23:32:47.676Z,98.90
2018-12-19T23:35:18.461Z,98.80
2018-12-19T23:37:49.172Z,98.80
2018-12-19T23:40:19.677Z,98.80
2018-12-19T23:42:50.217Z,98.90
2018-12-19T23:45:20.940Z,99.00
2018-12-19T23:47:51.672Z,99.10
2018-12-19T23:50:22.219Z,99.20
2018-12-19T23:52:53.040Z,99.40
2018-12-19T23:55:23.670Z,99.50
2018-12-19T23:57:54.223Z,99.60
